Time;durP1;ratioP1;P1;durP2;ratioP2;P2;SDS_P1;SDS_P2;PMS_P1;PMS_P2;Temp;Humidity;BMP_temperature;BMP_pressure;BME280_temperature;BME280_humidity;BME280_pressure;Samples;Min_cycle;Max_cycle;Signal;HPM_P1;HPM_P2
2022/09/01 00:03:22;;;;;;;5.38;3.47;;;25.90;26.30;;;;;;20997030;28;20080;-56
2022/09/01 00:13:24;;;;;;;7.07;3.63;;;25.80;26.90;;;;;;20996870;28;20055;-56
2022/09/01 00:23:27;;;;;;;;;;;25.60;27.00;;;;;;20995428;28;20052;-56
2022/09/01 00:33:28;;;;;;;5.23;2.70;;;25.50;26.60;;;;;;20994474;28;19920;-58
2022/09/01 00:43:40;;;;;;;5.43;2.80;;;25.40;27.00;;;;;;20995309;28;20305;-58
2022/09/01 00:53:43;;;;;;;6.38;2.83;;;25.40;27.60;;;;;;20994787;28;20044;-58
2022/09/01 01:03:45;;;;;;;5.80;3.00;;;25.30;27.80;;;;;;20993873;28;20098;-59
2022/09/01 01:13:53;;;;;;;5.28;3.00;;;25.30;28.60;;;;;;20993920;28;20051;-55
2022/09/01 01:24:08;;;;;;;5.32;2.38;;;25.00;29.60;;;;;;20993304;28;20049;-55
2022/09/01 01:34:13;;;;;;;6.38;2.13;;;24.90;29.80;;;;;;20993352;28;20076;-58
2022/09/01 01:44:23;;;;;;;9.13;2.60;;;24.60;29.60;;;;;;20993868;28;20092;-57
2022/09/01 01:54:30;;;;;;;5.40;2.30;;;24.60;29.80;;;;;;21007618;28;20098;-56
2022/09/01 02:04:33;;;;;;;4.28;2.55;;;24.40;30.40;;;;;;21006285;28;20499;-58
2022/09/01 02:14:37;;;;;;;5.53;2.40;;;24.20;31.00;;;;;;21005324;28;20326;-57
2022/09/01 02:24:46;;;;;;;3.45;2.20;;;24.10;31.20;;;;;;21003891;28;20060;-59
2022/09/01 02:34:52;;;;;;;8.50;2.70;;;23.60;31.00;;;;;;21004325;28;20503;-59
2022/09/01 02:44:56;;;;;;;6.05;2.30;;;23.30;31.60;;;;;;21003027;28;20049;-57
2022/09/01 02:54:58;;;;;;;3.03;2.20;;;23.10;31.90;;;;;;21001325;28;20048;-57
2022/09/01 03:05:00;;;;;;;4.43;1.80;;;22.80;31.80;;;;;;21000311;28;20060;-55
2022/09/01 03:15:02;;;;;;;5.68;2.20;;;22.60;31.70;;;;;;21000097;28;20045;-58
2022/09/01 03:25:04;;;;;;;;;;;22.30;31.20;;;;;;20999332;28;20139;-56
2022/09/01 03:35:07;;;;;;;3.22;1.98;;;22.10;31.30;;;;;;20999534;28;20006;-56
2022/09/01 03:45:14;;;;;;;4.95;2.00;;;22.00;31.90;;;;;;20997716;28;20109;-57
2022/09/01 03:55:22;;;;;;;3.60;2.20;;;21.90;32.20;;;;;;20997170;28;20442;-58
2022/09/01 04:05:28;;;;;;;3.83;2.55;;;21.60;32.30;;;;;;20996337;28;20071;-59
2022/09/01 04:15:33;;;;;;;4.88;2.17;;;21.50;32.10;;;;;;20996425;28;20052;-57
2022/09/01 04:25:40;;;;;;;6.15;2.35;;;21.50;32.20;;;;;;20995345;28;20059;-59
2022/09/01 04:35:42;;;;;;;4.22;2.28;;;21.70;32.50;;;;;;20995251;28;20068;-55
2022/09/01 04:45:45;;;;;;;4.20;1.93;;;22.00;31.90;;;;;;20994015;28;20056;-58
2022/09/01 04:55:47;;;;;;;6.77;2.27;;;22.00;31.20;;;;;;20993778;28;20057;-59
2022/09/01 05:05:49;;;;;;;7.67;3.10;;;22.00;31.50;;;;;;20993402;28;20060;-59
2022/09/01 05:16:06;;;;;;;12.40;3.95;;;21.80;31.70;;;;;;20993004;28;20045;-56
2022/09/01 05:26:22;;;;;;;4.50;2.33;;;21.80;31.80;;;;;;21004626;28;20091;-55
2022/09/01 05:36:25;;;;;;;7.90;2.70;;;21.70;31.50;;;;;;21007740;28;20056;-58
2022/09/01 05:46:28;;;;;;;5.33;2.73;;;21.70;32.00;;;;;;21007036;28;20115;-60
2022/09/01 05:56:31;;;;;;;7.00;2.85;;;21.50;32.80;;;;;;21005950;28;20316;-56
2022/09/01 06:06:45;;;;;;;5.50;2.85;;;21.50;33.10;;;;;;21005724;28;20079;-57
2022/09/01 06:16:47;;;;;;;7.53;3.38;;;21.40;32.40;;;;;;21006300;28;20048;-58
2022/09/01 06:26:49;;;;;;;12.07;3.40;;;21.60;32.60;;;;;;21004984;28;20040;-59
2022/09/01 06:36:52;;;;;;;10.70;3.25;;;21.50;32.80;;;;;;21003541;28;20052;-58
2022/09/01 06:46:54;;;;;;;9.13;3.50;;;21.60;33.10;;;;;;21002525;28;20052;-58
2022/09/01 06:56:57;;;;;;;12.07;3.10;;;21.70;32.80;;;;;;21002687;28;20060;-57
2022/09/01 07:06:59;;;;;;;9.07;3.30;;;22.00;32.30;;;;;;21000748;28;20052;-55
2022/09/01 07:17:01;;;;;;;9.13;3.63;;;22.40;32.00;;;;;;20999570;28;20059;-62
2022/09/01 07:27:02;;;;;;;11.18;3.60;;;22.80;31.80;;;;;;20998663;28;20048;-60
2022/09/01 07:37:05;;;;;;;14.37;4.33;;;23.20;31.90;;;;;;20998289;28;20052;-58
2022/09/01 07:47:08;;;;;;;10.10;4.88;;;23.60;31.80;;;;;;20997539;28;20159;-60
2022/09/01 07:57:09;;;;;;;8.48;4.20;;;23.90;31.40;;;;;;20996579;28;20048;-56
2022/09/01 08:07:11;;;;;;;8.73;3.17;;;24.30;32.00;;;;;;20996578;28;20123;-58
2022/09/01 08:17:13;;;;;;;7.05;3.50;;;24.70;32.70;;;;;;20995506;28;20132;-58
2022/09/01 08:27:15;;;;;;;5.55;2.80;;;25.00;33.40;;;;;;20992411;28;20097;-55
2022/09/01 08:44:27;;;;;;;9.35;3.38;;;25.60;37.60;;;;;;21035976;27;20767;-57
2022/09/01 08:54:43;;;;;;;7.05;3.08;;;25.90;32.60;;;;;;21062957;28;20040;-60
2022/09/01 09:04:52;;;;;;;6.13;3.33;;;25.90;32.40;;;;;;21068688;28;20396;-59
2022/09/01 09:15:14;;;;;;;7.75;3.78;;;26.20;32.40;;;;;;21066584;28;20503;-60
2022/09/01 09:25:17;;;;;;;5.53;2.85;;;26.30;32.90;;;;;;21064892;28;20113;-60
2022/09/01 09:35:29;;;;;;;7.07;3.83;;;26.40;33.10;;;;;;21064734;28;20138;-60
2022/09/01 09:45:34;;;;;;;11.50;3.97;;;26.60;33.00;;;;;;21063281;28;20468;-60
2022/09/01 09:55:53;;;;;;;48.00;9.57;;;27.10;32.00;;;;;;21006820;28;20052;-59
2022/09/01 10:05:56;;;;;;;14.23;3.85;;;27.30;38.90;;;;;;21006827;28;20056;-59
2022/09/01 10:16:06;;;;;;;10.98;4.72;;;27.40;32.70;;;;;;21004528;28;20060;-59
2022/09/01 10:26:37;;;;;;;13.73;4.13;;;27.50;31.30;;;;;;21004654;28;20044;-60
2022/09/01 10:36:42;;;;;;;15.88;3.67;;;28.00;29.90;;;;;;21003124;28;20088;-59
2022/09/01 10:46:45;;;;;;;9.02;2.70;;;28.10;28.70;;;;;;21002407;28;20078;-59
2022/09/01 10:56:52;;;;;;;6.85;4.22;;;28.30;26.10;;;;;;21001630;28;20125;-59
2022/09/01 11:07:00;;;;;;;3.67;2.15;;;28.60;25.60;;;;;;21000709;28;20120;-59
2022/09/01 11:17:21;;;;;;;11.13;2.60;;;29.00;25.40;;;;;;21001631;28;20174;-60
2022/09/01 11:27:47;;;;;;;3.90;1.97;;;29.10;25.40;;;;;;20999067;28;20048;-59
2022/09/01 11:38:00;;;;;;;4.45;2.83;;;29.30;24.40;;;;;;20999136;28;20450;-60
2022/09/01 11:48:07;;;;;;;10.02;3.88;;;29.50;24.80;;;;;;20998348;28;20049;-58
2022/09/01 11:58:31;;;;;;;4.28;3.28;;;29.70;24.20;;;;;;20997113;28;20056;-59
2022/09/01 12:08:37;;;;;;;3.97;2.22;;;30.00;24.00;;;;;;20998318;28;20052;-60
2022/09/01 12:18:47;;;;;;;3.22;1.70;;;30.20;23.50;;;;;;20996688;28;20459;-59
2022/09/01 12:28:49;;;;;;;2.03;1.40;;;30.30;24.00;;;;;;20996821;28;20139;-59
2022/09/01 12:39:15;;;;;;;2.08;1.50;;;30.50;23.50;;;;;;20995882;28;20066;-60
2022/09/01 12:49:45;;;;;;;2.00;1.27;;;30.60;23.10;;;;;;20982289;28;20057;-60
2022/09/01 12:59:46;;;;;;;9.05;4.65;;;30.90;22.70;;;;;;20995291;28;20044;-58
2022/09/01 13:09:48;;;;;;;4.32;2.22;;;30.70;23.40;;;;;;20994243;28;20048;-60
2022/09/01 13:19:49;;;;;;;4.57;1.70;;;31.00;23.10;;;;;;20975750;28;20553;-61
2022/09/01 13:29:51;;;;;;;5.63;2.13;;;31.00;22.30;;;;;;21007265;28;20068;-60
2022/09/01 13:39:53;;;;;;;1.95;1.10;;;30.90;22.30;;;;;;21008222;28;20067;-59
2022/09/01 13:49:55;;;;;;;3.30;1.67;;;31.20;22.10;;;;;;21008534;28;20048;-59
2022/09/01 13:59:57;;;;;;;2.55;1.30;;;31.40;21.50;;;;;;21006936;28;20060;-59
2022/09/01 14:09:59;;;;;;;5.07;1.45;;;31.40;21.80;;;;;;21005426;28;20155;-62
2022/09/01 14:20:03;;;;;;;2.63;1.70;;;31.50;21.30;;;;;;21005667;28;20052;-60
2022/09/01 14:30:07;;;;;;;3.88;1.65;;;31.60;20.50;;;;;;21004975;28;20457;-60
2022/09/01 14:40:13;;;;;;;16.23;11.52;;;31.80;20.20;;;;;;21002770;28;20063;-60
2022/09/01 14:50:16;;;;;;;5.30;1.40;;;31.70;21.30;;;;;;21003172;28;20050;-59
2022/09/01 15:00:18;;;;;;;2.50;1.60;;;31.70;20.40;;;;;;21001441;28;20109;-59
2022/09/01 15:10:23;;;;;;;2.38;1.42;;;31.70;20.50;;;;;;21001849;28;20048;-58
2022/09/01 15:30:46;;;;;;;2.65;1.08;;;31.90;19.90;;;;;;21000334;28;20127;-59
2022/09/01 15:40:49;;;;;;;2.00;1.02;;;31.90;19.80;;;;;;20998599;28;20139;-59
2022/09/01 15:50:53;;;;;;;2.58;1.10;;;31.80;20.00;;;;;;20998710;28;20089;-59
2022/09/01 16:00:55;;;;;;;1.92;1.40;;;31.90;19.70;;;;;;20997630;28;20067;-59
2022/09/01 16:10:57;;;;;;;1.83;1.25;;;31.90;20.90;;;;;;20997437;28;20060;-61
2022/09/01 16:21:32;;;;;;;3.75;1.50;;;31.80;20.60;;;;;;20996975;28;20135;-61
2022/09/01 16:31:34;;;;;;;4.57;1.73;;;31.80;20.50;;;;;;20995162;28;20044;-61
2022/09/01 16:42:04;;;;;;;2.75;1.15;;;31.70;20.00;;;;;;20994870;28;20476;-60
2022/09/01 16:52:27;;;;;;;3.10;1.67;;;31.70;20.60;;;;;;20995572;28;20485;-59
2022/09/01 17:02:43;;;;;;;2.92;1.10;;;31.70;19.20;;;;;;21005505;28;20506;-59
2022/09/01 17:12:54;;;;;;;4.35;1.55;;;31.50;18.90;;;;;;21010642;28;20484;-59
2022/09/01 17:22:59;;;;;;;3.67;1.33;;;31.20;19.90;;;;;;21009216;28;20049;-61
2022/09/01 17:33:21;;;;;;;2.30;1.40;;;31.10;20.70;;;;;;21009278;28;20558;-60
2022/09/01 17:43:33;;;;;;;3.63;1.40;;;31.10;20.40;;;;;;20989762;28;20052;-60
2022/09/01 17:53:52;;;;;;;6.78;1.95;;;30.90;21.20;;;;;;21007050;28;20049;-61
2022/09/01 18:04:30;;;;;;;6.00;1.60;;;30.70;21.50;;;;;;21005819;28;20049;-60
2022/09/01 18:14:49;;;;;;;3.22;1.48;;;30.60;22.10;;;;;;21005485;28;20083;-59
2022/09/01 18:24:57;;;;;;;4.20;1.87;;;30.50;22.30;;;;;;20986356;28;20127;-59
2022/09/01 18:35:10;;;;;;;4.20;1.88;;;30.30;22.20;;;;;;21004409;28;20044;-59
2022/09/01 18:45:20;;;;;;;5.28;2.08;;;30.10;22.30;;;;;;21003207;28;20048;-59
2022/09/01 18:55:57;;;;;;;4.40;1.73;;;30.00;22.90;;;;;;21002366;28;20179;-60
2022/09/01 19:06:37;;;;;;;3.40;2.08;;;29.80;22.30;;;;;;21001345;28;20508;-60
2022/09/01 19:16:53;;;;;;;3.17;2.40;;;29.60;21.70;;;;;;21001244;28;20078;-59
2022/09/01 19:27:20;;;;;;;3.90;2.28;;;29.50;21.50;;;;;;20998633;28;20082;-59
2022/09/01 19:37:22;;;;;;;5.93;2.88;;;29.40;22.00;;;;;;20998611;28;20052;-59
2022/09/01 19:48:02;;;;;;;5.28;2.33;;;29.20;22.60;;;;;;20998845;28;20076;-60
2022/09/01 19:58:11;;;;;;;3.90;2.40;;;29.20;22.80;;;;;;20997325;28;20497;-59
2022/09/01 20:08:15;;;;;;;4.80;2.70;;;29.10;23.30;;;;;;20999472;28;20131;-59
2022/09/01 20:18:28;;;;;;;4.25;2.13;;;28.90;24.10;;;;;;20997811;28;20053;-59
2022/09/01 20:28:51;;;;;;;4.28;2.42;;;28.80;24.60;;;;;;20995864;28;20049;-60
2022/09/01 20:49:37;;;;;;;3.88;2.20;;;28.60;25.50;;;;;;20658520;28;20046;-58
2022/09/01 20:59:52;;;;;;;4.97;2.42;;;28.60;26.50;;;;;;20657985;28;20065;-59
2022/09/01 21:10:02;;;;;;;4.90;2.92;;;28.50;26.10;;;;;;20658248;28;20078;-59
2022/09/01 21:20:25;;;;;;;4.30;2.85;;;28.30;26.80;;;;;;20784552;28;20522;-60
2022/09/01 21:30:31;;;;;;;5.10;1.90;;;28.20;26.90;;;;;;20993872;28;20070;-60
2022/09/01 21:40:33;;;;;;;5.22;2.65;;;28.10;27.00;;;;;;20993493;28;20062;-59
2022/09/01 21:50:35;;;;;;;5.53;2.40;;;28.00;27.70;;;;;;21008748;28;20068;-60
2022/09/01 22:00:38;;;;;;;3.55;2.65;;;27.80;28.30;;;;;;20990366;28;20485;-60
2022/09/01 22:10:43;;;;;;;3.58;2.47;;;27.60;27.80;;;;;;21007864;28;20532;-59
2022/09/01 22:20:46;;;;;;;6.20;2.55;;;27.50;28.30;;;;;;21006650;28;20111;-59
2022/09/01 22:30:49;;;;;;;4.70;2.70;;;27.40;29.00;;;;;;21004726;28;20139;-59
2022/09/01 22:40:54;;;;;;;5.38;2.03;;;27.30;29.90;;;;;;21004330;28;20079;-60
2022/09/01 22:50:56;;;;;;;4.47;2.28;;;27.10;30.10;;;;;;21004503;28;20481;-59
2022/09/01 23:00:59;;;;;;;16.27;10.75;;;26.90;30.70;;;;;;21002102;28;20143;-58
2022/09/01 23:11:01;;;;;;;5.15;2.53;;;;;;;;;;21001395;28;20044;-59
2022/09/01 23:21:05;;;;;;;4.30;2.50;;;26.70;31.10;;;;;;21000446;28;20481;-59
2022/09/01 23:31:09;;;;;;;5.70;2.75;;;26.60;31.50;;;;;;20999966;28;20432;-58
2022/09/01 23:41:14;;;;;;;4.40;2.03;;;26.40;31.50;;;;;;20999216;28;20113;-58
2022/09/01 23:51:17;;;;;;;4.53;2.00;;;26.40;31.70;;;;;;20999401;28;20041;-59
